Campo Alegre De Goias, Brazil
Current Conditions -  °F | °C
As of 2:00 PM on Friday 28 Nov 2014 (Local Time) from SBUL Reporting Station
Light Rain Light Rain  
Wind Chill: 72°   Ceiling: 900
Heat Index: 72°   Visibility: 6mi
Dew Point: 66°   Wind: 6mph
Humidity: 83%   Direction: 130°SE
Pressure: 30.06"   Gusts: NA
Location:  17.65°S, 47.75°W
Report Text: SBUL 281600Z 13005KT 9999 2500NE -RA FEW005 BKN009 22/19 Q1018
Loading
Personal Weather Stations






























Interactive Weather Map New forecast layout! Learn more

10-Day Weather Forecast

Advertisements
Track Severe Weather on mobile